createdAt,value
2022-08-17T00:00:06.590Z,75.09
2022-08-17T00:02:42.836Z,75.21
2022-08-17T00:05:10.022Z,75.09
2022-08-17T00:07:36.804Z,75.28
2022-08-17T00:10:04.171Z,75.54
2022-08-17T00:12:40.695Z,75.91
2022-08-17T00:15:20.912Z,76.08
2022-08-17T00:17:50.757Z,75.67
2022-08-17T00:20:18.596Z,75.83
2022-08-17T00:22:50.538Z,75.80
2022-08-17T00:25:20.035Z,76.15
2022-08-17T00:27:47.236Z,76.08
2022-08-17T00:30:14.573Z,76.33
2022-08-17T00:33:23.106Z,76.69
2022-08-17T00:35:31.566Z,76.63
2022-08-17T00:37:58.402Z,77.12
2022-08-17T00:40:25.232Z,76.95
2022-08-17T00:42:53.417Z,77.14
2022-08-17T00:45:20.669Z,77.30
2022-08-17T00:47:47.835Z,77.47
2022-08-17T00:50:17.450Z,77.48
2022-08-17T00:52:51.670Z,77.57
2022-08-17T00:55:19.919Z,77.76
2022-08-17T00:57:54.750Z,77.63
2022-08-17T01:00:30.372Z,77.98
2022-08-17T01:03:08.511Z,77.53
2022-08-17T01:05:38.820Z,77.46
2022-08-17T01:08:13.564Z,78.11
2022-08-17T01:11:00.334Z,78.48
2022-08-17T01:13:38.189Z,78.60
2022-08-17T01:16:18.323Z,78.73
2022-08-17T01:18:48.448Z,78.50
2022-08-17T01:21:50.242Z,78.24
2022-08-17T01:24:17.896Z,78.60
2022-08-17T01:26:45.776Z,78.74
2022-08-17T01:29:13.251Z,79.05
2022-08-17T01:31:45.560Z,78.67
2022-08-17T01:34:14.818Z,78.53
2022-08-17T01:36:45.890Z,78.70
2022-08-17T01:39:22.853Z,79.37
2022-08-17T01:41:53.293Z,79.37
2022-08-17T01:44:21.777Z,79.47
2022-08-17T01:46:48.575Z,79.89
2022-08-17T01:49:15.724Z,79.96
2022-08-17T01:51:42.658Z,80.31
2022-08-17T01:54:13.496Z,80.24
2022-08-17T01:56:44.290Z,80.06
2022-08-17T01:59:15.027Z,80.00
2022-08-17T02:01:43.596Z,79.90
2022-08-17T02:04:11.816Z,79.58
2022-08-17T02:06:52.843Z,79.62
2022-08-17T02:09:29.888Z,79.56
2022-08-17T02:11:59.287Z,79.49
2022-08-17T02:14:26.663Z,79.73
2022-08-17T02:16:53.782Z,79.93
2022-08-17T02:19:21.794Z,79.94
2022-08-17T02:21:51.555Z,80.14
2022-08-17T02:24:59.567Z,80.36
2022-08-17T02:27:18.964Z,80.57
2022-08-17T02:29:45.693Z,80.70
2022-08-17T02:32:27.419Z,80.83
2022-08-17T02:34:59.728Z,81.20
2022-08-17T02:37:27.245Z,81.08
2022-08-17T02:39:57.066Z,81.08
2022-08-17T02:42:27.891Z,80.85
2022-08-17T02:44:54.782Z,81.23
2022-08-17T02:47:21.496Z,81.67
2022-08-17T02:49:55.397Z,81.89
2022-08-17T02:52:41.946Z,81.93
2022-08-17T02:55:17.507Z,81.84
2022-08-17T02:57:45.048Z,81.67
2022-08-17T03:00:16.781Z,81.53
2022-08-17T03:02:44.353Z,81.63
2022-08-17T03:05:13.823Z,81.78
2022-08-17T03:07:40.543Z,81.92
2022-08-17T03:10:08.906Z,81.97
2022-08-17T03:12:38.682Z,81.99
2022-08-17T03:15:14.560Z,82.20
2022-08-17T03:17:41.634Z,82.07
2022-08-17T03:20:09.418Z,82.12
2022-08-17T03:22:38.357Z,82.23
2022-08-17T03:25:10.613Z,81.68
2022-08-17T03:27:38.547Z,81.69
2022-08-17T03:30:10.606Z,81.48
2022-08-17T03:32:46.142Z,81.88
2022-08-17T03:35:15.837Z,81.87
2022-08-17T03:37:46.316Z,82.28
2022-08-17T03:40:14.022Z,81.75
2022-08-17T03:42:41.990Z,81.97
2022-08-17T03:45:15.596Z,82.05
2022-08-17T03:48:01.596Z,82.07
2022-08-17T03:50:46.858Z,82.09
2022-08-17T03:53:35.492Z,82.36
2022-08-17T03:56:23.144Z,82.33
2022-08-17T03:58:50.574Z,82.31
2022-08-17T04:01:17.973Z,82.58
2022-08-17T04:03:44.929Z,82.69
2022-08-17T04:06:11.683Z,83.10
2022-08-17T04:08:38.574Z,83.18
2022-08-17T04:11:05.571Z,83.23
2022-08-17T04:13:32.398Z,83.08
2022-08-17T04:15:59.876Z,82.81
2022-08-17T04:18:26.789Z,83.01
2022-08-17T04:20:53.639Z,82.82
2022-08-17T04:23:20.493Z,82.78
2022-08-17T04:25:51.312Z,82.27
2022-08-17T04:28:19.187Z,82.11
2022-08-17T04:30:47.331Z,81.97
2022-08-17T04:33:17.360Z,82.03
2022-08-17T04:35:50.081Z,82.19
2022-08-17T04:38:19.374Z,82.39
2022-08-17T04:41:04.687Z,82.13
2022-08-17T04:43:58.871Z,81.72
2022-08-17T04:46:29.428Z,81.53
2022-08-17T04:48:57.245Z,81.65
2022-08-17T04:51:28.109Z,81.40
2022-08-17T04:53:58.802Z,80.63
2022-08-17T04:56:27.584Z,80.56
2022-08-17T04:58:58.031Z,80.64
2022-08-17T05:01:28.060Z,80.55
2022-08-17T05:03:59.078Z,80.56
2022-08-17T05:06:27.568Z,80.27
2022-08-17T05:08:55.005Z,80.04
2022-08-17T05:11:23.131Z,79.95
2022-08-17T05:13:50.318Z,79.57
2022-08-17T05:16:18.627Z,79.30
2022-08-17T05:18:45.931Z,79.59
2022-08-17T05:21:13.246Z,79.85
2022-08-17T05:23:42.753Z,80.03
2022-08-17T05:26:25.432Z,79.79
2022-08-17T05:28:59.849Z,79.45
2022-08-17T05:31:29.431Z,79.01
2022-08-17T05:33:56.463Z,78.84
2022-08-17T05:36:43.483Z,78.95
2022-08-17T05:39:10.761Z,78.54
2022-08-17T05:41:44.800Z,78.96
2022-08-17T05:44:11.603Z,78.61
2022-08-17T05:46:43.464Z,77.88
2022-08-17T05:49:11.911Z,77.73
2022-08-17T05:51:56.536Z,77.65
2022-08-17T05:54:55.408Z,77.27
2022-08-17T05:57:47.427Z,77.51
2022-08-17T06:00:29.998Z,77.05
2022-08-17T06:03:09.760Z,76.18
2022-08-17T06:06:21.631Z,74.89
2022-08-17T06:09:33.435Z,72.59
2022-08-17T06:12:21.575Z,71.50
2022-08-17T06:14:58.394Z,70.28
2022-08-17T06:17:27.199Z,69.08
2022-08-17T06:20:02.001Z,68.03
2022-08-17T06:22:40.951Z,67.42
2022-08-17T06:25:18.087Z,66.70
2022-08-17T06:27:55.623Z,65.34
2022-08-17T06:30:28.401Z,60.35
2022-08-17T06:33:07.647Z,57.26
2022-08-17T06:36:03.027Z,57.44
2022-08-17T06:38:49.916Z,56.75
2022-08-17T06:41:16.905Z,56.31
2022-08-17T06:44:43.669Z,56.90
2022-08-17T06:47:28.525Z,57.10
2022-08-17T06:50:17.748Z,57.03
2022-08-17T06:52:58.387Z,56.92
2022-08-17T06:55:45.073Z,57.03
2022-08-17T06:58:16.193Z,56.57
2022-08-17T07:00:47.028Z,55.23
2022-08-17T07:03:32.149Z,55.33
2022-08-17T07:06:04.570Z,55.18
2022-08-17T07:08:55.810Z,55.35
2022-08-17T07:11:40.752Z,55.81
2022-08-17T07:14:38.065Z,55.91
2022-08-17T07:17:10.345Z,56.66
2022-08-17T07:19:45.420Z,57.37
2022-08-17T07:22:53.602Z,57.73
2022-08-17T07:25:31.190Z,58.90
2022-08-17T07:27:59.798Z,58.00
2022-08-17T07:30:30.632Z,58.72
2022-08-17T07:33:13.828Z,59.39
2022-08-17T07:35:44.012Z,56.11
2022-08-17T07:38:26.874Z,55.36
2022-08-17T07:41:03.626Z,57.06
2022-08-17T07:43:46.883Z,57.37
2022-08-17T07:46:47.920Z,55.92
2022-08-17T07:49:14.673Z,55.49
2022-08-17T07:51:44.338Z,55.97
2022-08-17T07:54:23.000Z,55.23
2022-08-17T07:57:12.971Z,54.03
2022-08-17T07:59:59.657Z,53.88
2022-08-17T08:02:33.592Z,54.18
2022-08-17T08:05:31.723Z,55.37
2022-08-17T08:08:22.637Z,53.38
2022-08-17T08:11:07.137Z,52.91
2022-08-17T08:13:35.406Z,53.84
2022-08-17T08:16:17.525Z,54.70
2022-08-17T08:18:55.542Z,52.98
2022-08-17T08:21:41.699Z,53.59
2022-08-17T08:24:30.822Z,53.07
2022-08-17T08:27:28.127Z,53.18
2022-08-17T08:30:14.426Z,52.54
2022-08-17T08:33:07.568Z,52.44
2022-08-17T08:36:09.348Z,51.25
2022-08-17T08:38:53.741Z,51.71
2022-08-17T08:41:39.273Z,50.83
2022-08-17T08:45:00.087Z,49.92
2022-08-17T08:47:19.282Z,49.56
2022-08-17T08:50:04.394Z,49.76
2022-08-17T08:52:50.466Z,50.53
2022-08-17T08:56:02.035Z,49.89
2022-08-17T08:58:59.199Z,49.95
2022-08-17T09:02:03.563Z,49.96
2022-08-17T09:05:12.992Z,50.18
2022-08-17T09:07:44.542Z,49.80
2022-08-17T09:10:39.523Z,49.50
2022-08-17T09:13:57.299Z,48.15
2022-08-17T09:16:33.193Z,46.12
2022-08-17T09:19:17.085Z,46.10
2022-08-17T09:21:48.023Z,46.18
2022-08-17T09:24:22.843Z,44.51
2022-08-17T09:27:02.284Z,45.52
2022-08-17T09:29:34.986Z,45.12
2022-08-17T09:32:13.300Z,44.74
2022-08-17T09:34:48.518Z,45.31
2022-08-17T09:37:21.715Z,44.92
2022-08-17T09:40:12.097Z,44.24
2022-08-17T09:43:31.395Z,41.45
2022-08-17T09:46:08.607Z,43.40
2022-08-17T09:49:02.026Z,39.46
2022-08-17T09:51:34.964Z,40.68
2022-08-17T09:54:34.747Z,39.04
2022-08-17T09:57:31.698Z,38.48
2022-08-17T10:00:13.530Z,37.33
2022-08-17T10:02:51.636Z,36.60
2022-08-17T10:05:28.241Z,36.92
2022-08-17T10:08:04.165Z,37.54
2022-08-17T10:10:40.046Z,35.14
2022-08-17T10:13:35.957Z,34.34
2022-08-17T10:16:26.058Z,36.25
2022-08-17T10:19:17.831Z,37.12
2022-08-17T10:22:15.019Z,37.46
2022-08-17T10:25:22.711Z,37.28
2022-08-17T10:28:04.055Z,39.65
2022-08-17T10:30:35.086Z,37.42
2022-08-17T10:33:14.516Z,36.87
2022-08-17T10:36:06.311Z,36.49
2022-08-17T10:38:49.655Z,35.88
2022-08-17T10:41:43.276Z,35.01
2022-08-17T10:44:47.094Z,36.31
2022-08-17T10:47:19.434Z,37.00
2022-08-17T10:49:53.898Z,38.88
2022-08-17T10:52:21.787Z,36.73
2022-08-17T10:54:51.796Z,37.63
2022-08-17T10:57:31.923Z,37.50
2022-08-17T11:00:17.442Z,38.02
2022-08-17T11:02:49.615Z,37.82
2022-08-17T11:05:32.979Z,36.98
2022-08-17T11:08:21.467Z,34.17
2022-08-17T11:11:01.358Z,32.74
2022-08-17T11:13:40.855Z,34.37
2022-08-17T11:16:43.087Z,34.57
2022-08-17T11:19:47.030Z,34.89
2022-08-17T11:22:33.489Z,37.55
2022-08-17T11:25:13.061Z,37.39
2022-08-17T11:27:40.462Z,38.47
2022-08-17T11:30:46.934Z,38.55
2022-08-17T11:33:36.919Z,37.19
2022-08-17T11:36:49.487Z,35.24
2022-08-17T11:39:22.143Z,34.21
2022-08-17T11:42:20.027Z,33.24
2022-08-17T11:44:46.808Z,34.71
2022-08-17T11:48:23.662Z,33.20
2022-08-17T11:51:11.903Z,35.29
2022-08-17T11:53:38.662Z,34.82
2022-08-17T11:56:10.785Z,35.11
2022-08-17T11:58:44.383Z,34.97
2022-08-17T12:01:31.595Z,34.78
2022-08-17T12:04:22.109Z,35.03
2022-08-17T12:06:54.570Z,34.69
2022-08-17T12:09:25.061Z,35.52
2022-08-17T12:12:13.829Z,36.68
2022-08-17T12:15:09.542Z,36.14
2022-08-17T12:17:41.525Z,36.58
2022-08-17T12:20:14.879Z,36.25
2022-08-17T12:23:09.232Z,33.93
2022-08-17T12:25:59.336Z,33.99
2022-08-17T12:28:29.359Z,33.66
2022-08-17T12:31:27.126Z,33.58
2022-08-17T12:33:54.610Z,33.00
2022-08-17T12:36:28.152Z,33.13
2022-08-17T12:39:14.481Z,33.90
2022-08-17T12:41:51.050Z,32.89
2022-08-17T12:44:23.108Z,34.45
2022-08-17T12:46:54.760Z,32.98
2022-08-17T12:49:26.476Z,33.13
2022-08-17T12:52:14.243Z,33.30
2022-08-17T12:54:59.572Z,32.22
2022-08-17T12:57:33.796Z,31.99
2022-08-17T13:00:21.862Z,32.41
2022-08-17T13:02:53.616Z,31.57
2022-08-17T13:05:28.430Z,31.57
2022-08-17T13:07:57.552Z,31.80
2022-08-17T13:10:32.829Z,31.64
2022-08-17T13:13:17.762Z,30.69
2022-08-17T13:15:57.125Z,31.86
2022-08-17T13:18:42.151Z,32.43
2022-08-17T13:21:18.929Z,31.82
2022-08-17T13:23:59.759Z,32.19
2022-08-17T13:26:37.911Z,32.28
2022-08-17T13:29:16.550Z,32.15
2022-08-17T13:31:51.966Z,32.53
2022-08-17T13:34:26.843Z,32.75
2022-08-17T13:37:26.282Z,31.92
2022-08-17T13:40:10.004Z,31.31
2022-08-17T13:42:52.967Z,32.08
2022-08-17T13:45:35.407Z,32.84
2022-08-17T13:48:28.784Z,33.56
2022-08-17T13:50:55.467Z,34.27
2022-08-17T13:53:50.474Z,33.54
2022-08-17T13:56:37.690Z,34.73
2022-08-17T13:59:12.692Z,33.60
2022-08-17T14:01:44.276Z,34.73
2022-08-17T14:04:14.680Z,33.97
2022-08-17T14:07:08.423Z,33.99
2022-08-17T14:09:38.050Z,33.79
2022-08-17T14:12:15.339Z,32.56
2022-08-17T14:14:43.386Z,32.42
2022-08-17T14:17:11.000Z,31.56
2022-08-17T14:19:38.296Z,32.28
2022-08-17T14:22:08.985Z,33.46
2022-08-17T14:24:44.667Z,32.82
2022-08-17T14:27:12.122Z,32.16
2022-08-17T14:29:41.171Z,31.96
2022-08-17T14:32:18.042Z,32.70
2022-08-17T14:34:46.054Z,32.12
2022-08-17T14:37:13.374Z,33.04
2022-08-17T14:39:40.344Z,33.70
2022-08-17T14:42:07.491Z,33.03
2022-08-17T14:44:36.928Z,34.08
2022-08-17T14:47:04.535Z,34.76
2022-08-17T14:49:31.733Z,34.88
2022-08-17T14:52:02.042Z,35.13
2022-08-17T14:54:34.292Z,35.63
2022-08-17T14:57:22.757Z,34.90
2022-08-17T14:59:54.545Z,35.28
2022-08-17T15:02:29.855Z,35.54
2022-08-17T15:05:02.793Z,35.24
2022-08-17T15:07:30.444Z,34.80
2022-08-17T15:09:58.785Z,34.83
2022-08-17T15:12:33.318Z,34.63
2022-08-17T15:15:02.111Z,33.58
2022-08-17T15:17:44.397Z,34.31
2022-08-17T15:20:18.719Z,33.57
2022-08-17T15:22:50.019Z,31.87
2022-08-17T15:25:19.222Z,31.93
2022-08-17T15:27:46.947Z,32.44
2022-08-17T15:30:15.151Z,32.70
2022-08-17T15:32:50.660Z,32.21
2022-08-17T15:35:29.094Z,32.57
2022-08-17T15:38:06.137Z,32.51
2022-08-17T15:40:44.888Z,31.25
2022-08-17T15:43:26.661Z,32.25
2022-08-17T15:46:01.847Z,32.85
2022-08-17T15:48:44.384Z,33.52
2022-08-17T15:51:38.423Z,33.75
2022-08-17T15:54:22.464Z,34.25
2022-08-17T15:56:50.182Z,34.66
2022-08-17T15:59:17.356Z,34.99
2022-08-17T16:03:01.175Z,35.65
2022-08-17T16:04:31.871Z,36.36
2022-08-17T16:06:59.936Z,37.38
2022-08-17T16:09:27.521Z,37.48
2022-08-17T16:11:56.445Z,37.59
2022-08-17T16:14:33.578Z,38.33
2022-08-17T16:17:03.347Z,38.45
2022-08-17T16:19:30.518Z,38.96
2022-08-17T16:21:57.486Z,39.47
2022-08-17T16:24:26.387Z,39.30
2022-08-17T16:26:55.506Z,38.69
2022-08-17T16:29:22.362Z,39.10
2022-08-17T16:31:49.480Z,38.88
2022-08-17T16:34:18.714Z,39.86
2022-08-17T16:36:55.080Z,40.18
2022-08-17T16:39:25.503Z,40.49
2022-08-17T16:41:52.311Z,40.71
2022-08-17T16:44:20.444Z,40.90
2022-08-17T16:46:48.956Z,41.55
2022-08-17T16:49:24.407Z,41.96
2022-08-17T16:52:04.757Z,41.81
2022-08-17T16:54:31.466Z,42.27
2022-08-17T16:56:58.167Z,42.53
2022-08-17T16:59:38.692Z,42.62
2022-08-17T17:02:11.285Z,42.42
2022-08-17T17:04:45.909Z,42.77
2022-08-17T17:07:43.197Z,42.77
2022-08-17T17:10:15.761Z,43.09
2022-08-17T17:13:02.119Z,42.65
2022-08-17T17:16:12.682Z,43.22
2022-08-17T17:18:51.704Z,42.81
2022-08-17T17:21:23.767Z,43.07
2022-08-17T17:23:58.037Z,41.91
2022-08-17T17:26:31.657Z,40.80
2022-08-17T17:29:28.687Z,40.14
2022-08-17T17:32:25.320Z,39.68
2022-08-17T17:35:01.374Z,39.53
2022-08-17T17:37:33.984Z,40.30
2022-08-17T17:40:09.422Z,40.58
2022-08-17T17:42:40.581Z,40.69
2022-08-17T17:45:16.909Z,40.72
2022-08-17T17:47:44.859Z,41.04
2022-08-17T17:50:12.014Z,40.58
2022-08-17T17:52:59.266Z,40.66
2022-08-17T17:55:39.968Z,40.54
2022-08-17T17:58:27.634Z,41.07
2022-08-17T18:01:09.018Z,41.03
2022-08-17T18:04:02.485Z,41.17
2022-08-17T18:06:45.558Z,41.33
2022-08-17T18:09:49.880Z,41.00
2022-08-17T18:12:40.586Z,41.00
2022-08-17T18:15:29.565Z,40.84
2022-08-17T18:18:16.536Z,40.83
2022-08-17T18:20:53.292Z,40.92
2022-08-17T18:23:27.758Z,41.00
2022-08-17T18:25:56.222Z,41.36
2022-08-17T18:28:41.856Z,41.12
2022-08-17T18:31:17.187Z,40.98
2022-08-17T18:33:47.719Z,41.00
2022-08-17T18:36:36.285Z,41.03
2022-08-17T18:39:21.305Z,41.37
2022-08-17T18:41:50.931Z,41.53
2022-08-17T18:44:42.548Z,41.60
2022-08-17T18:47:22.238Z,41.82
2022-08-17T18:49:57.737Z,41.82
2022-08-17T18:52:34.316Z,45.09
2022-08-17T18:55:08.678Z,44.32
2022-08-17T18:57:44.810Z,43.68
2022-08-17T19:00:16.900Z,43.26
2022-08-17T19:02:59.812Z,45.03
2022-08-17T19:05:40.178Z,44.65
2022-08-17T19:08:29.048Z,45.15
2022-08-17T19:10:58.547Z,45.54
2022-08-17T19:13:31.418Z,45.32
2022-08-17T19:16:22.143Z,45.72
2022-08-17T19:19:00.650Z,46.37
2022-08-17T19:25:53.436Z,46.64
2022-08-17T19:32:14.646Z,46.37
2022-08-17T19:34:56.805Z,46.59
2022-08-17T19:38:27.793Z,46.80
2022-08-17T19:41:03.713Z,46.73
2022-08-17T19:43:57.759Z,47.05
2022-08-17T19:47:19.588Z,47.29
2022-08-17T19:50:09.050Z,47.66
2022-08-17T19:52:55.307Z,47.76
2022-08-17T19:55:31.825Z,47.73
2022-08-17T19:58:54.022Z,48.14
2022-08-17T20:01:58.287Z,48.31
2022-08-17T20:04:41.460Z,48.51
2022-08-17T20:07:44.696Z,48.47
2022-08-17T20:11:03.907Z,48.83
2022-08-17T20:13:49.070Z,49.23
2022-08-17T20:16:18.274Z,49.47
2022-08-17T20:19:06.122Z,49.37
2022-08-17T20:21:39.348Z,49.59
2022-08-17T20:24:28.126Z,49.89
2022-08-17T20:26:58.936Z,50.30
2022-08-17T20:29:36.991Z,50.63
2022-08-17T20:32:25.148Z,50.51
2022-08-17T20:35:30.488Z,50.78
2022-08-17T20:38:30.995Z,51.15
2022-08-17T20:41:01.049Z,51.21
2022-08-17T20:43:33.969Z,51.28
2022-08-17T20:46:06.561Z,51.46
2022-08-17T20:48:45.391Z,51.57
2022-08-17T20:51:16.904Z,51.66
2022-08-17T20:53:46.691Z,52.13
2022-08-17T20:56:50.443Z,52.39
2022-08-17T20:59:26.145Z,52.56
2022-08-17T21:02:19.458Z,52.65
2022-08-17T21:04:56.409Z,52.46
2022-08-17T21:07:42.911Z,52.71
2022-08-17T21:10:21.246Z,53.05
2022-08-17T21:13:04.499Z,53.29
2022-08-17T21:15:54.904Z,53.62
2022-08-17T21:18:38.769Z,53.74
2022-08-17T21:21:29.910Z,53.75
2022-08-17T21:24:38.742Z,54.01
2022-08-17T21:27:08.557Z,54.13
2022-08-17T21:30:12.749Z,54.21
2022-08-17T21:32:42.909Z,54.41
2022-08-17T21:35:30.041Z,54.72
2022-08-17T21:38:04.950Z,54.94
2022-08-17T21:40:33.795Z,54.93
2022-08-17T21:43:16.943Z,55.45
2022-08-17T21:45:53.852Z,55.76
2022-08-17T21:48:27.353Z,55.87
2022-08-17T21:51:00.797Z,56.07
2022-08-17T21:53:36.514Z,56.15
2022-08-17T21:56:04.705Z,56.16
2022-08-17T21:58:35.099Z,56.25
2022-08-17T22:01:24.663Z,56.56
2022-08-17T22:03:57.577Z,56.62
2022-08-17T22:06:39.981Z,57.06
2022-08-17T22:09:09.688Z,57.22
2022-08-17T22:11:51.343Z,57.78
2022-08-17T22:14:22.871Z,57.70
2022-08-17T22:17:15.432Z,58.51
2022-08-17T22:19:52.019Z,58.51
2022-08-17T22:22:29.774Z,59.07
2022-08-17T22:24:59.776Z,59.30
2022-08-17T22:27:56.699Z,59.90
2022-08-17T22:30:37.683Z,60.09
2022-08-17T22:33:30.048Z,60.76
2022-08-17T22:36:24.573Z,60.75
2022-08-17T22:39:02.300Z,60.92
2022-08-17T22:41:48.206Z,61.29
2022-08-17T22:44:49.101Z,61.61
2022-08-17T22:47:19.274Z,61.54
2022-08-17T22:49:58.148Z,62.15
2022-08-17T22:53:00.612Z,62.34
2022-08-17T22:55:48.749Z,62.48
2022-08-17T22:58:38.852Z,62.57
2022-08-17T23:01:25.758Z,63.01
2022-08-17T23:03:58.429Z,63.14
2022-08-17T23:06:25.327Z,63.47
2022-08-17T23:08:55.016Z,63.73
2022-08-17T23:11:42.922Z,63.78
2022-08-17T23:14:16.054Z,64.24
2022-08-17T23:16:42.926Z,64.30
2022-08-17T23:19:11.836Z,64.65
2022-08-17T23:21:39.023Z,64.67
2022-08-17T23:24:08.973Z,65.02
2022-08-17T23:26:38.133Z,65.57
2022-08-17T23:29:06.691Z,65.50
2022-08-17T23:31:36.097Z,65.66
2022-08-17T23:34:11.578Z,65.93
2022-08-17T23:36:38.845Z,66.04
2022-08-17T23:39:07.259Z,66.43
2022-08-17T23:41:38.524Z,66.56
2022-08-17T23:44:06.351Z,66.75
2022-08-17T23:46:34.447Z,66.96
2022-08-17T23:49:01.377Z,67.17
2022-08-17T23:51:31.472Z,67.56
2022-08-17T23:54:08.194Z,67.49
2022-08-17T23:56:40.814Z,67.42
2022-08-17T23:59:07.595Z,67.84
